Time;durP1;ratioP1;P1;durP2;ratioP2;P2;SDS_P1;SDS_P2;PMS_P1;PMS_P2;Temp;Humidity;BMP_temperature;BMP_pressure;BME280_temperature;BME280_humidity;BME280_pressure;Samples;Min_cycle;Max_cycle;Signal;HPM_P1;HPM_P2
2022/06/07 00:01:59;;;;;;;;;;;13.20;99.90;;;;;;5010909;28;20519;-80
2022/06/07 00:04:24;;;;;;;;;;;13.10;99.90;;;;;;5013979;28;19929;-79
2022/06/07 00:06:50;;;;;;;;;;;13.20;99.90;;;;;;5010048;28;20001;-80
2022/06/07 00:09:15;;;;;;;;;;;13.30;99.90;;;;;;4998687;28;19924;-80
2022/06/07 00:11:41;;;;;;;;;;;13.20;99.90;;;;;;5016674;28;19959;-80
2022/06/07 00:14:07;;;;;;;;;;;13.20;99.90;;;;;;4989886;28;19964;-79
2022/06/07 00:16:32;;;;;;;;;;;13.30;99.90;;;;;;4996327;28;19931;-81
2022/06/07 00:18:58;;;;;;;;;;;13.30;99.90;;;;;;5016591;28;19932;-81
2022/06/07 00:21:24;;;;;;;;;;;13.30;99.90;;;;;;5014218;28;19936;-79
2022/06/07 00:23:50;;;;;;;;;;;13.30;99.90;;;;;;5015536;28;19928;-80
2022/06/07 00:26:15;;;;;;;;;;;13.20;99.90;;;;;;5014245;28;19929;-79
2022/06/07 00:28:41;;;;;;;;;;;13.30;99.90;;;;;;5009810;28;19951;-82
2022/06/07 00:31:07;;;;;;;;;;;13.30;99.90;;;;;;4997389;28;19936;-80
2022/06/07 00:33:33;;;;;;;;;;;13.30;99.90;;;;;;5012174;28;19929;-80
2022/06/07 00:35:58;;;;;;;;;;;13.30;99.90;;;;;;4996724;28;19941;-81
2022/06/07 00:38:24;;;;;;;;;;;13.50;99.90;;;;;;5016240;28;19929;-80
2022/06/07 00:40:49;;;;;;;;;;;13.40;99.90;;;;;;4999645;28;20122;-80
2022/06/07 00:43:15;;;;;;;;;;;13.40;99.90;;;;;;5011762;28;20634;-80
2022/06/07 00:45:41;;;;;;;;;;;13.40;99.90;;;;;;4995321;28;19928;-80
2022/06/07 00:48:07;;;;;;;;;;;13.30;99.90;;;;;;5014258;28;19940;-80
2022/06/07 00:50:39;;;;;;;;;;;13.20;99.90;;;;;;4979052;28;19928;-80
2022/06/07 00:53:05;;;;;;;;;;;13.30;99.90;;;;;;5012185;28;19959;-82
2022/06/07 00:55:31;;;;;;;;;;;13.20;99.90;;;;;;5011660;28;20325;-81
2022/06/07 00:57:57;;;;;;;;;;;13.30;99.90;;;;;;5013831;28;19928;-81
2022/06/07 01:00:23;;;;;;;;;;;13.30;99.90;;;;;;5012345;28;19933;-81
2022/06/07 01:02:49;;;;;;;;;;;13.20;99.90;;;;;;5013686;28;20027;-79
2022/06/07 01:05:15;;;;;;;;;;;13.20;99.90;;;;;;5010979;28;19929;-82
2022/06/07 01:10:43;;;;;;;;;;;13.20;99.90;;;;;;5011739;28;19932;-80
2022/06/07 01:13:09;;;;;;;;;;;13.30;99.90;;;;;;5015268;28;20394;-82
2022/06/07 01:15:35;;;;;;;;;;;13.30;99.90;;;;;;5007809;28;19991;-81
2022/06/07 01:18:01;;;;;;;;;;;13.20;99.90;;;;;;5008883;28;20869;-81
2022/06/07 01:20:28;;;;;;;;;;;13.20;99.90;;;;;;5012129;28;20587;-81
2022/06/07 01:22:54;;;;;;;;;;;13.30;99.90;;;;;;4994427;28;19936;-80
2022/06/07 01:25:20;;;;;;;;;;;13.20;99.90;;;;;;5014081;28;19929;-80
2022/06/07 01:27:45;;;;;;;;;;;13.20;99.90;;;;;;5008744;28;19951;-80
2022/06/07 01:30:11;;;;;;;;;;;13.20;99.90;;;;;;4995360;28;19990;-81
2022/06/07 01:32:37;;;;;;;;;;;13.20;99.90;;;;;;4998929;28;20153;-81
2022/06/07 01:35:03;;;;;;;;;;;13.30;99.90;;;;;;5014414;28;20305;-80
2022/06/07 01:37:29;;;;;;;;;;;13.30;99.90;;;;;;5011319;28;20424;-82
2022/06/07 01:42:38;;;;;;;;;;;13.20;99.90;;;;;;5013948;28;20477;-81
2022/06/07 01:45:05;;;;;;;;;;;13.30;99.90;;;;;;5007604;28;20019;-83
2022/06/07 01:47:31;;;;;;;;;;;13.20;99.90;;;;;;5012717;28;20028;-80
2022/06/07 01:49:57;;;;;;;;;;;13.20;99.90;;;;;;5012120;28;19929;-82
2022/06/07 01:52:26;;;;;;;;;;;13.20;99.90;;;;;;5013052;28;19936;-80
2022/06/07 01:54:51;;;;;;;;;;;13.20;99.90;;;;;;4995943;28;19971;-81
2022/06/07 01:57:18;;;;;;;;;;;13.20;99.90;;;;;;5013688;28;20019;-80
2022/06/07 01:59:44;;;;;;;;;;;13.20;99.90;;;;;;5012732;28;19994;-81
2022/06/07 02:02:09;;;;;;;;;;;13.20;99.90;;;;;;4996029;28;20409;-83
2022/06/07 02:04:36;;;;;;;;;;;13.20;99.90;;;;;;4997264;28;19958;-83
2022/06/07 02:07:03;;;;;;;;;;;13.30;99.90;;;;;;5010367;28;20831;-80
2022/06/07 02:09:28;;;;;;;;;;;13.30;99.90;;;;;;4979263;28;19980;-81
2022/06/07 02:11:54;;;;;;;;;;;13.30;99.90;;;;;;4973567;28;20031;-80
2022/06/07 02:14:20;;;;;;;;;;;13.30;99.90;;;;;;5014542;28;19928;-81
2022/06/07 02:16:45;;;;;;;;;;;13.20;99.90;;;;;;5012916;28;19956;-80
2022/06/07 02:19:11;;;;;;;;;;;13.30;99.90;;;;;;5013082;28;20415;-80
2022/06/07 02:21:38;;;;;;;;;;;13.30;99.90;;;;;;5015286;28;19954;-81
2022/06/07 02:24:04;;;;;;;;;;;13.30;99.90;;;;;;5010248;28;19944;-80
2022/06/07 02:26:32;;;;;;;;;;;13.20;99.90;;;;;;4995892;28;19928;-80
2022/06/07 02:28:59;;;;;;;;;;;13.30;99.90;;;;;;5014069;28;19929;-80
2022/06/07 02:31:26;;;;;;;;;;;13.30;99.90;;;;;;5010894;28;19963;-80
2022/06/07 02:33:53;;;;;;;;;;;13.30;99.90;;;;;;5005898;28;19933;-80
2022/06/07 02:36:19;;;;;;;;;;;13.30;99.90;;;;;;5012955;28;20451;-82
2022/06/07 02:38:45;;;;;;;;;;;13.30;99.90;;;;;;4990775;28;19928;-82
2022/06/07 02:41:12;;;;;;;;;;;13.20;99.90;;;;;;5012939;28;19962;-81
2022/06/07 02:43:37;;;;;;;;;;;13.30;99.90;;;;;;4994299;28;19960;-79
2022/06/07 02:46:03;;;;;;;;;;;13.30;99.90;;;;;;5010651;28;20019;-81
2022/06/07 02:48:29;;;;;;;;;;;13.40;99.90;;;;;;4994983;28;19980;-81
2022/06/07 02:50:54;;;;;;;;;;;13.30;99.90;;;;;;4996162;28;19929;-80
2022/06/07 02:53:20;;;;;;;;;;;13.30;99.90;;;;;;5011762;28;19940;-82
2022/06/07 02:55:45;;;;;;;;;;;13.40;99.90;;;;;;4994267;28;19929;-81
2022/06/07 02:58:11;;;;;;;;;;;13.30;99.90;;;;;;4995926;28;20107;-80
2022/06/07 03:00:37;;;;;;;;;;;13.30;99.90;;;;;;5012793;28;19929;-80
2022/06/07 03:03:03;;;;;;;;;;;13.30;99.90;;;;;;5010775;28;20784;-83
2022/06/07 03:05:28;;;;;;;;;;;13.40;99.90;;;;;;5011986;28;19983;-80
2022/06/07 03:07:54;;;;;;;;;;;13.30;99.90;;;;;;4979975;28;20523;-80
2022/06/07 03:10:20;;;;;;;;;;;13.30;99.90;;;;;;4996574;28;19935;-81
2022/06/07 03:12:46;;;;;;;;;;;13.40;99.90;;;;;;4990884;28;19998;-81
2022/06/07 03:15:12;;;;;;;;;;;13.30;99.90;;;;;;4995835;28;20493;-80
2022/06/07 03:17:37;;;;;;;;;;;13.40;99.90;;;;;;5012071;28;20270;-83
2022/06/07 03:20:04;;;;;;;;;;;13.40;99.90;;;;;;4996333;28;19936;-80
2022/06/07 03:22:30;;;;;;;;;;;13.40;99.90;;;;;;4978653;28;19932;-82
2022/06/07 03:24:55;;;;;;;;;;;13.40;99.90;;;;;;4994652;28;19944;-80
2022/06/07 03:27:21;;;;;;;;;;;13.40;99.90;;;;;;4996082;28;19942;-80
2022/06/07 03:29:46;;;;;;;;;;;13.40;99.90;;;;;;5001122;28;20417;-80
2022/06/07 03:32:12;;;;;;;;;;;13.40;99.90;;;;;;5011963;28;19928;-81
2022/06/07 03:34:39;;;;;;;;;;;13.40;99.90;;;;;;5029969;28;19929;-81
2022/06/07 03:37:05;;;;;;;;;;;13.40;99.90;;;;;;5016033;28;19928;-80
2022/06/07 03:39:31;;;;;;;;;;;13.40;99.90;;;;;;5032369;28;19928;-80
2022/06/07 03:41:56;;;;;;;;;;;13.40;99.90;;;;;;5034230;28;19979;-82
2022/06/07 03:44:22;;;;;;;;;;;13.50;99.90;;;;;;5016156;28;19937;-81
2022/06/07 03:46:48;;;;;;;;;;;13.50;99.90;;;;;;5034046;28;19971;-80
2022/06/07 03:49:15;;;;;;;;;;;13.40;99.90;;;;;;5032913;28;19929;-79
2022/06/07 03:51:41;;;;;;;;;;;13.40;99.90;;;;;;5032167;28;19931;-80
2022/06/07 03:54:06;;;;;;;;;;;13.50;99.90;;;;;;5013263;28;19928;-81
2022/06/07 03:56:33;;;;;;;;;;;13.40;99.90;;;;;;5032091;28;23224;-81
2022/06/07 03:58:58;;;;;;;;;;;13.50;99.90;;;;;;5013856;28;20016;-79
2022/06/07 04:01:25;;;;;;;;;;;13.50;99.90;;;;;;5014079;28;19932;-82
2022/06/07 04:03:52;;;;;;;;;;;13.40;99.90;;;;;;5032035;28;20452;-80
2022/06/07 04:06:19;;;;;;;;;;;13.40;99.90;;;;;;5030914;28;19929;-79
2022/06/07 04:08:44;;;;;;;;;;;13.40;99.90;;;;;;5013174;28;19940;-84
2022/06/07 04:11:11;;;;;;;;;;;13.30;99.90;;;;;;5032335;28;19929;-80
2022/06/07 04:13:37;;;;;;;;;;;13.40;99.90;;;;;;5031676;28;19943;-81
2022/06/07 04:16:06;;;;;;;;;;;13.40;99.90;;;;;;5031736;28;20335;-81
2022/06/07 04:18:32;;;;;;;;;;;13.50;99.90;;;;;;5031446;28;19928;-80
2022/06/07 04:20:58;;;;;;;;;;;13.40;99.90;;;;;;5031093;28;19972;-79
2022/06/07 04:23:24;;;;;;;;;;;13.40;99.90;;;;;;5014212;28;19932;-81
2022/06/07 04:25:49;;;;;;;;;;;13.50;99.90;;;;;;5030106;28;19986;-79
2022/06/07 04:28:15;;;;;;;;;;;13.50;99.90;;;;;;5030370;28;20476;-80
2022/06/07 04:30:45;;;;;;;;;;;13.50;99.90;;;;;;5031055;28;19944;-80
2022/06/07 04:33:11;;;;;;;;;;;13.50;99.90;;;;;;5028759;28;21465;-81
2022/06/07 04:35:36;;;;;;;;;;;13.50;99.90;;;;;;5027402;28;19929;-84
2022/06/07 04:38:02;;;;;;;;;;;13.50;99.90;;;;;;5011964;28;19929;-80
2022/06/07 04:40:28;;;;;;;;;;;13.50;99.90;;;;;;5030987;28;20108;-81
2022/06/07 04:42:54;;;;;;;;;;;13.50;99.90;;;;;;5030395;28;21120;-81
2022/06/07 04:45:19;;;;;;;;;;;13.50;99.90;;;;;;5030138;28;20862;-80
2022/06/07 04:47:45;;;;;;;;;;;13.50;99.90;;;;;;5010486;28;19935;-81
2022/06/07 04:50:13;;;;;;;;;;;13.60;99.90;;;;;;5031243;28;20401;-81
2022/06/07 04:52:39;;;;;;;;;;;13.60;99.90;;;;;;5029745;28;20016;-82
2022/06/07 04:55:04;;;;;;;;;;;13.60;99.90;;;;;;5032939;28;20027;-80
2022/06/07 04:57:30;;;;;;;;;;;13.70;99.90;;;;;;5014846;28;19955;-79
2022/06/07 04:59:56;;;;;;;;;;;13.70;99.90;;;;;;5015091;28;19987;-79
2022/06/07 05:02:22;;;;;;;;;;;13.60;99.90;;;;;;5012412;28;19932;-81
2022/06/07 05:04:48;;;;;;;;;;;13.60;99.90;;;;;;4997271;28;20058;-80
2022/06/07 05:07:14;;;;;;;;;;;13.70;99.90;;;;;;5031587;28;19935;-81
2022/06/07 05:09:40;;;;;;;;;;;13.70;99.90;;;;;;5031712;28;20416;-80
2022/06/07 05:12:08;;;;;;;;;;;13.70;99.90;;;;;;5028428;28;20007;-82
2022/06/07 05:14:34;;;;;;;;;;;13.80;99.90;;;;;;5028293;28;19929;-80
2022/06/07 05:17:00;;;;;;;;;;;13.60;99.90;;;;;;5029457;28;19936;-81
2022/06/07 05:19:27;;;;;;;;;;;13.70;99.90;;;;;;5030437;28;20039;-82
2022/06/07 05:21:53;;;;;;;;;;;13.70;99.90;;;;;;5029688;28;20003;-78
2022/06/07 05:24:18;;;;;;;;;;;13.70;99.90;;;;;;5028889;28;19932;-80
2022/06/07 05:26:46;;;;;;;;;;;13.70;99.90;;;;;;5010547;28;19924;-81
2022/06/07 05:29:32;;;;;;;;;;;13.70;99.90;;;;;;5028888;28;19935;-81
2022/06/07 05:31:58;;;;;;;;;;;13.80;99.90;;;;;;5010153;28;19935;-81
2022/06/07 05:34:24;;;;;;;;;;;13.90;99.90;;;;;;5010141;28;19928;-83
2022/06/07 05:36:49;;;;;;;;;;;13.90;99.90;;;;;;5010115;28;19940;-80
2022/06/07 05:39:20;;;;;;;;;;;14.00;99.90;;;;;;5003223;28;19936;-81
2022/06/07 05:41:46;;;;;;;;;;;13.90;99.90;;;;;;5029227;28;20031;-83
2022/06/07 05:44:11;;;;;;;;;;;14.10;99.90;;;;;;5010793;28;19981;-80
2022/06/07 05:46:37;;;;;;;;;;;14.00;99.90;;;;;;5028770;28;19995;-81
2022/06/07 05:49:03;;;;;;;;;;;14.20;99.90;;;;;;5027212;28;20411;-80
2022/06/07 05:51:29;;;;;;;;;;;14.20;99.90;;;;;;5028100;28;19959;-81
2022/06/07 05:53:55;;;;;;;;;;;14.30;99.90;;;;;;5028093;28;19974;-81
2022/06/07 05:56:20;;;;;;;;;;;14.40;99.90;;;;;;5006181;28;19951;-80
2022/06/07 05:58:48;;;;;;;;;;;14.60;99.90;;;;;;5023397;28;19929;-81
2022/06/07 06:01:15;;;;;;;;;;;14.50;99.90;;;;;;5012281;28;19955;-80
2022/06/07 06:03:40;;;;;;;;;;;14.60;99.90;;;;;;5010134;28;20010;-82
2022/06/07 06:06:10;;;;;;;;;;;14.50;99.90;;;;;;5012225;28;19929;-80
2022/06/07 06:11:22;;;;;;;;;;;14.50;99.90;;;;;;4999482;28;19933;-79
2022/06/07 06:13:48;;;;;;;;;;;14.60;99.90;;;;;;4991348;28;19929;-81
2022/06/07 06:16:15;;;;;;;;;;;14.60;99.90;;;;;;5026688;28;19928;-81
2022/06/07 06:18:41;;;;;;;;;;;14.60;99.90;;;;;;5014012;28;19936;-80
2022/06/07 06:21:07;;;;;;;;;;;14.70;99.90;;;;;;5030339;28;19928;-81
2022/06/07 06:23:33;;;;;;;;;;;14.70;99.90;;;;;;5010235;28;20627;-82
2022/06/07 06:25:58;;;;;;;;;;;14.70;99.90;;;;;;5011372;28;19928;-80
2022/06/07 06:28:25;;;;;;;;;;;14.70;99.90;;;;;;5030061;28;19943;-81
2022/06/07 06:30:52;;;;;;;;;;;14.90;99.90;;;;;;5027080;28;19935;-82
2022/06/07 06:33:18;;;;;;;;;;;14.80;99.90;;;;;;5010750;28;19929;-80
2022/06/07 06:35:48;;;;;;;;;;;15.00;99.90;;;;;;4979657;28;19929;-81
2022/06/07 06:38:14;;;;;;;;;;;15.20;99.90;;;;;;5011406;28;19936;-80
2022/06/07 06:40:40;;;;;;;;;;;15.20;99.90;;;;;;5011050;28;20442;-80
2022/06/07 06:43:06;;;;;;;;;;;15.40;99.90;;;;;;5011919;28;20023;-80
2022/06/07 06:45:31;;;;;;;;;;;15.50;99.90;;;;;;5031211;28;20803;-79
2022/06/07 06:47:57;;;;;;;;;;;15.70;99.90;;;;;;5030504;28;20019;-82
2022/06/07 06:50:22;;;;;;;;;;;15.60;99.90;;;;;;5011809;28;19924;-81
2022/06/07 06:52:48;;;;;;;;;;;15.30;99.90;;;;;;5007436;28;20835;-85
2022/06/07 06:55:14;;;;;;;;;;;15.20;99.90;;;;;;4991078;28;19932;-80
2022/06/07 06:57:40;;;;;;;;;;;15.10;99.90;;;;;;4988825;28;20393;-80
2022/06/07 07:00:08;;;;;;;;;;;15.00;99.90;;;;;;5013450;28;19959;-80
2022/06/07 07:02:33;;;;;;;;;;;14.90;99.90;;;;;;5031118;28;19936;-81
2022/06/07 07:05:00;;;;;;;;;;;14.90;99.90;;;;;;5010981;28;19933;-79
2022/06/07 07:07:26;;;;;;;;;;;14.70;99.90;;;;;;5011107;28;19933;-81
2022/06/07 07:09:54;;;;;;;;;;;14.60;99.90;;;;;;5009812;28;19928;-82
2022/06/07 07:12:19;;;;;;;;;;;14.60;99.90;;;;;;5001414;28;19991;-82
2022/06/07 07:14:46;;;;;;;;;;;14.50;99.90;;;;;;5013404;28;19929;-81
2022/06/07 07:17:11;;;;;;;;;;;14.40;99.90;;;;;;5031894;28;20396;-79
2022/06/07 07:19:37;;;;;;;;;;;14.30;99.90;;;;;;5014143;28;20573;-81
2022/06/07 07:22:03;;;;;;;;;;;14.30;99.90;;;;;;5012103;28;19933;-81
2022/06/07 07:24:28;;;;;;;;;;;14.30;99.90;;;;;;5014051;28;20453;-83
2022/06/07 07:26:54;;;;;;;;;;;14.20;99.90;;;;;;5029722;28;20074;-80
2022/06/07 07:29:20;;;;;;;;;;;14.20;99.90;;;;;;5030666;28;20015;-78
2022/06/07 07:31:46;;;;;;;;;;;14.20;99.90;;;;;;5012466;28;20226;-81
2022/06/07 07:34:14;;;;;;;;;;;14.20;99.90;;;;;;5030299;28;20401;-80
2022/06/07 07:36:44;;;;;;;;;;;14.20;99.90;;;;;;5030516;28;20079;-80
2022/06/07 07:39:09;;;;;;;;;;;14.20;99.90;;;;;;5030419;28;19987;-80
2022/06/07 07:41:36;;;;;;;;;;;14.20;99.90;;;;;;5011128;28;19929;-81
2022/06/07 07:44:03;;;;;;;;;;;14.20;99.90;;;;;;5029817;28;20019;-80
2022/06/07 07:46:30;;;;;;;;;;;14.30;99.90;;;;;;5031244;28;19939;-78
2022/06/07 07:48:56;;;;;;;;;;;14.50;99.90;;;;;;5031206;28;19929;-79
2022/06/07 07:51:23;;;;;;;;;;;14.60;99.90;;;;;;5014121;28;19968;-79
2022/06/07 07:53:50;;;;;;;;;;;14.60;99.90;;;;;;5002708;28;19933;-82
2022/06/07 07:56:15;;;;;;;;;;;14.70;99.90;;;;;;5032606;28;19929;-80
2022/06/07 07:58:41;;;;;;;;;;;14.60;99.90;;;;;;5016838;28;20309;-82
2022/06/07 08:01:13;;;;;;;;;;;14.60;99.90;;;;;;5013564;28;19974;-79
2022/06/07 08:03:39;;;;;;;;;;;14.50;99.90;;;;;;5012348;28;19933;-80
2022/06/07 08:06:06;;;;;;;;;;;14.50;99.90;;;;;;5025966;28;19940;-80
2022/06/07 08:08:31;;;;;;;;;;;14.40;99.90;;;;;;5025391;28;19939;-83
2022/06/07 08:10:57;;;;;;;;;;;14.40;99.90;;;;;;5007519;28;19948;-79
2022/06/07 08:13:22;;;;;;;;;;;14.40;99.90;;;;;;5003716;28;20488;-81
2022/06/07 08:15:48;;;;;;;;;;;14.40;99.90;;;;;;5021667;28;20392;-80
2022/06/07 08:18:13;;;;;;;;;;;14.30;99.90;;;;;;5012556;28;20286;-80
2022/06/07 08:20:39;;;;;;;;;;;14.30;99.90;;;;;;5016117;28;19929;-79
2022/06/07 08:23:07;;;;;;;;;;;14.40;99.90;;;;;;5031284;28;21131;-79
2022/06/07 08:25:32;;;;;;;;;;;14.30;99.90;;;;;;5032344;28;19935;-81
2022/06/07 08:27:58;;;;;;;;;;;14.40;99.90;;;;;;5032829;28;19929;-79
2022/06/07 08:30:24;;;;;;;;;;;14.40;99.90;;;;;;5016237;28;19928;-79
2022/06/07 08:32:51;;;;;;;;;;;14.60;99.90;;;;;;5031136;28;20197;-80
2022/06/07 08:38:22;;;;;;;;;;;14.80;99.90;;;;;;4934999;28;20016;-78
2022/06/07 08:40:47;;;;;;;;;;;14.90;99.90;;;;;;4948100;28;20081;-81
2022/06/07 08:43:19;;;;;;;;;;;15.00;99.90;;;;;;4988138;28;19933;-80
2022/06/07 08:45:46;;;;;;;;;;;15.20;99.90;;;;;;5015068;28;20359;-78
2022/06/07 08:48:13;;;;;;;;;;;15.20;99.90;;;;;;5032485;28;19935;-79
2022/06/07 08:50:44;;;;;;;;;;;15.20;99.90;;;;;;5034597;28;21016;-81
2022/06/07 08:53:13;;;;;;;;;;;15.30;99.90;;;;;;5016438;28;19936;-81
2022/06/07 08:55:45;;;;;;;;;;;15.30;99.90;;;;;;5033862;28;20406;-81
2022/06/07 08:58:23;;;;;;;;;;;15.30;99.90;;;;;;5015820;28;20019;-82
2022/06/07 09:00:50;;;;;;;;;;;15.40;99.90;;;;;;5016007;28;20310;-80
2022/06/07 09:03:26;;;;;;;;;;;15.40;99.90;;;;;;5033780;28;20412;-81
2022/06/07 09:05:52;;;;;;;;;;;15.50;99.90;;;;;;5013651;28;19936;-80
2022/06/07 09:08:18;;;;;;;;;;;15.60;99.90;;;;;;5032912;28;20396;-78
2022/06/07 09:13:32;;;;;;;;;;;15.70;99.90;;;;;;5015083;28;19928;-79
2022/06/07 09:15:57;;;;;;;;;;;15.70;99.90;;;;;;5002833;28;19928;-80
2022/06/07 09:18:28;;;;;;;;;;;15.70;99.90;;;;;;5002328;28;19979;-80
2022/06/07 09:20:57;;;;;;;;;;;15.70;99.90;;;;;;5031680;28;20422;-79
2022/06/07 09:23:29;;;;;;;;;;;15.80;99.90;;;;;;5014254;28;20002;-79
2022/06/07 09:25:56;;;;;;;;;;;15.70;99.90;;;;;;5029941;28;19982;-79
2022/06/07 09:28:26;;;;;;;;;;;15.70;99.90;;;;;;5031640;28;19930;-80
2022/06/07 09:31:18;;;;;;;;;;;15.60;99.90;;;;;;5013617;28;19972;-80
2022/06/07 09:33:52;;;;;;;;;;;15.60;99.90;;;;;;5010170;28;19928;-84
2022/06/07 09:36:19;;;;;;;;;;;15.50;99.90;;;;;;5013670;28;19929;-81
2022/06/07 09:38:51;;;;;;;;;;;15.50;99.90;;;;;;5012888;28;19959;-81
2022/06/07 09:41:37;;;;;;;;;;;15.40;99.90;;;;;;5030475;28;19939;-81
2022/06/07 09:44:21;;;;;;;;;;;15.40;99.90;;;;;;5012732;28;19933;-81
2022/06/07 09:46:48;;;;;;;;;;;15.30;99.90;;;;;;5032147;28;19929;-80
2022/06/07 09:49:25;;;;;;;;;;;15.30;99.90;;;;;;4997977;28;20310;-79
2022/06/07 09:51:50;;;;;;;;;;;15.40;99.90;;;;;;5030990;28;19940;-79
2022/06/07 09:54:17;;;;;;;;;;;15.40;99.90;;;;;;5031705;28;19932;-79
2022/06/07 09:56:55;;;;;;;;;;;15.50;99.90;;;;;;5014067;28;19952;-81
2022/06/07 09:59:30;;;;;;;;;;;15.60;99.90;;;;;;5032066;28;20393;-80
2022/06/07 10:01:59;;;;;;;;;;;15.70;99.90;;;;;;5030709;28;19939;-80
2022/06/07 10:04:27;;;;;;;;;;;15.60;99.90;;;;;;5031957;28;19936;-81
2022/06/07 10:06:55;;;;;;;;;;;15.70;99.90;;;;;;5031195;28;19929;-80
2022/06/07 10:09:20;;;;;;;;;;;16.00;99.90;;;;;;5030276;28;20095;-79
2022/06/07 10:12:04;;;;;;;;;;;16.50;99.90;;;;;;5014006;28;19932;-82
2022/06/07 10:14:48;;;;;;;;;;;17.20;99.90;;;;;;5031725;28;19928;-81
2022/06/07 10:17:43;;;;;;;;;;;17.00;99.90;;;;;;5031068;28;19929;-80
2022/06/07 10:20:20;;;;;;;;;;;17.00;99.90;;;;;;5012636;28;20087;-79
2022/06/07 10:23:07;;;;;;;;;;;16.80;99.90;;;;;;5031514;28;20059;-80
2022/06/07 10:25:33;;;;;;;;;;;16.80;99.90;;;;;;5032072;28;19928;-84
2022/06/07 10:28:14;;;;;;;;;;;17.00;99.90;;;;;;5030692;28;19967;-80
2022/06/07 10:30:55;;;;;;;;;;;16.90;99.90;;;;;;5018438;28;19940;-78
2022/06/07 10:33:30;;;;;;;;;;;16.90;99.90;;;;;;5003545;28;20023;-79
2022/06/07 10:36:31;;;;;;;;;;;16.90;99.90;;;;;;5016640;28;20439;-79
2022/06/07 10:38:59;;;;;;;;;;;17.00;99.90;;;;;;4901579;29;19934;-81
2022/06/07 10:41:28;;;;;;;;;;;17.20;99.90;;;;;;4981451;28;19928;-79
2022/06/07 10:44:03;;;;;;;;;;;17.50;99.90;;;;;;5017214;28;20928;-79
2022/06/07 10:46:29;;;;;;;;;;;17.70;99.90;;;;;;4985544;28;19936;-81
2022/06/07 10:48:59;;;;;;;;;;;17.90;99.90;;;;;;4996397;28;19929;-82
2022/06/07 10:54:16;;;;;;;;;;;17.70;99.90;;;;;;5015677;28;21027;-79
2022/06/07 10:56:48;;;;;;;;;;;17.70;99.90;;;;;;5012945;28;19928;-78
2022/06/07 10:59:23;;;;;;;;;;;17.90;99.90;;;;;;5000385;28;20453;-81
2022/06/07 11:01:54;;;;;;;;;;;17.90;99.90;;;;;;5017525;28;19976;-81
2022/06/07 11:09:58;;;;;;;;;;;18.00;99.90;;;;;;4994678;28;19956;-81
2022/06/07 11:12:26;;;;;;;;;;;18.20;99.90;;;;;;5016240;28;20584;-80
2022/06/07 11:15:10;;;;;;;;;;;18.40;99.90;;;;;;5018127;28;19929;-79
2022/06/07 11:17:42;;;;;;;;;;;18.90;99.90;;;;;;4981512;28;19933;-81
2022/06/07 11:20:16;;;;;;;;;;;18.80;99.90;;;;;;4985180;28;19929;-81
2022/06/07 11:23:02;;;;;;;;;;;18.80;99.90;;;;;;5013391;28;19935;-80
2022/06/07 11:25:32;;;;;;;;;;;18.70;99.90;;;;;;5001030;28;20935;-80
2022/06/07 11:27:59;;;;;;;;;;;18.70;99.90;;;;;;4997964;28;19929;-82
2022/06/07 11:30:33;;;;;;;;;;;18.80;99.90;;;;;;5017326;28;20445;-83
2022/06/07 11:33:00;;;;;;;;;;;18.70;99.90;;;;;;4985097;28;19935;-79
2022/06/07 11:35:41;;;;;;;;;;;18.50;99.90;;;;;;5006879;28;19929;-83
2022/06/07 11:38:33;;;;;;;;;;;18.80;99.90;;;;;;5012214;28;20306;-79
2022/06/07 11:44:10;;;;;;;;;;;19.30;99.90;;;;;;5010605;28;19928;-80
2022/06/07 11:46:35;;;;;;;;;;;19.40;99.90;;;;;;4998602;28;19929;-80
2022/06/07 11:49:20;;;;;;;;;;;19.60;99.90;;;;;;4991968;28;19931;-83
2022/06/07 11:51:53;;;;;;;;;;;19.10;99.90;;;;;;5009364;28;20024;-81
2022/06/07 11:54:23;;;;;;;;;;;19.20;99.90;;;;;;5011692;28;20032;-80
2022/06/07 11:56:51;;;;;;;;;;;19.90;99.90;;;;;;5005505;28;19933;-80
2022/06/07 11:59:16;;;;;;;;;;;20.10;99.90;;;;;;4997550;28;20388;-80
2022/06/07 12:01:46;;;;;;;;;;;20.20;99.90;;;;;;5008011;28;20830;-81
2022/06/07 12:04:28;;;;;;;;;;;19.90;99.90;;;;;;5002539;28;19929;-82
2022/06/07 12:06:58;;;;;;;;;;;19.70;99.90;;;;;;5022528;28;20674;-80
2022/06/07 12:09:24;;;;;;;;;;;19.60;99.90;;;;;;5026091;28;20002;-83
2022/06/07 12:11:50;;;;;;;;;;;19.50;99.90;;;;;;5011178;28;20359;-79
2022/06/07 12:14:22;;;;;;;;;;;19.10;99.90;;;;;;5029785;28;19933;-80
2022/06/07 12:16:53;;;;;;;;;;;19.20;99.90;;;;;;5029442;28;20008;-80
2022/06/07 12:19:26;;;;;;;;;;;19.10;99.90;;;;;;5013322;28;19983;-80
2022/06/07 12:22:07;;;;;;;;;;;19.00;99.90;;;;;;5012374;28;20043;-80
2022/06/07 12:24:39;;;;;;;;;;;19.00;99.90;;;;;;5010142;28;19929;-80
2022/06/07 12:27:31;;;;;;;;;;;18.70;99.90;;;;;;5010323;28;20015;-80
2022/06/07 12:30:03;;;;;;;;;;;18.70;99.90;;;;;;5026049;28;20031;-80
2022/06/07 12:32:33;;;;;;;;;;;18.70;99.90;;;;;;5012677;28;19928;-82
2022/06/07 12:35:08;;;;;;;;;;;18.80;99.90;;;;;;5025009;28;19932;-80
2022/06/07 12:37:34;;;;;;;;;;;19.10;99.90;;;;;;4996923;28;20429;-81
2022/06/07 12:40:00;;;;;;;;;;;18.90;99.90;;;;;;4998614;28;20445;-81
2022/06/07 12:42:27;;;;;;;;;;;18.70;99.90;;;;;;5017779;28;19940;-80
2022/06/07 12:44:57;;;;;;;;;;;18.80;99.90;;;;;;5014801;28;19929;-81
2022/06/07 12:47:26;;;;;;;;;;;18.90;99.90;;;;;;5016682;28;19929;-80
2022/06/07 12:49:53;;;;;;;;;;;18.80;99.90;;;;;;5002667;28;19936;-80
2022/06/07 12:52:20;;;;;;;;;;;19.60;99.90;;;;;;5026698;28;20176;-79
2022/06/07 12:54:48;;;;;;;;;;;19.90;99.90;;;;;;5031266;28;19968;-79
2022/06/07 12:57:16;;;;;;;;;;;20.20;99.90;;;;;;5011372;28;19939;-80
2022/06/07 12:59:50;;;;;;;;;;;20.30;99.90;;;;;;5004079;28;19929;-83
2022/06/07 13:02:17;;;;;;;;;;;19.80;99.90;;;;;;5008052;28;20329;-81
2022/06/07 13:04:46;;;;;;;;;;;20.30;99.90;;;;;;5025915;28;19936;-79
2022/06/07 13:07:25;;;;;;;;;;;20.70;99.90;;;;;;5010879;28;19925;-80
2022/06/07 13:09:53;;;;;;;;;;;20.60;99.90;;;;;;5011974;28;20726;-80
2022/06/07 13:12:22;;;;;;;;;;;20.30;99.90;;;;;;5031560;28;19939;-79
2022/06/07 13:14:48;;;;;;;;;;;20.10;99.90;;;;;;5030722;28;19925;-80
2022/06/07 13:17:25;;;;;;;;;;;19.90;99.90;;;;;;4986572;28;19976;-79
2022/06/07 13:19:51;;;;;;;;;;;19.70;99.90;;;;;;5027669;28;20062;-80
2022/06/07 13:22:17;;;;;;;;;;;19.70;99.90;;;;;;5013091;28;19979;-80
2022/06/07 13:24:51;;;;;;;;;;;19.70;99.90;;;;;;5013691;28;19955;-79
2022/06/07 13:27:40;;;;;;;;;;;19.80;99.90;;;;;;5011309;28;19925;-79
2022/06/07 13:30:14;;;;;;;;;;;19.80;99.90;;;;;;4994554;28;19956;-80
2022/06/07 13:32:40;;;;;;;;;;;19.60;99.90;;;;;;5020775;28;19933;-81
2022/06/07 13:35:25;;;;;;;;;;;19.60;99.90;;;;;;5000494;28;19933;-79
2022/06/07 13:38:01;;;;;;;;;;;19.70;99.90;;;;;;5010716;28;19929;-81
2022/06/07 13:40:29;;;;;;;;;;;20.00;99.90;;;;;;5001234;28;19939;-79
2022/06/07 13:43:13;;;;;;;;;;;20.30;99.90;;;;;;5010020;28;19929;-80
2022/06/07 13:45:44;;;;;;;;;;;20.90;99.90;;;;;;4995139;28;19939;-79
2022/06/07 13:48:16;;;;;;;;;;;20.80;99.90;;;;;;5007318;28;19933;-79
2022/06/07 13:53:50;;;;;;;;;;;21.50;99.90;;;;;;5006823;28;19986;-81
2022/06/07 13:56:18;;;;;;;;;;;21.50;99.90;;;;;;5008470;28;19988;-80
2022/06/07 13:58:48;;;;;;;;;;;21.30;99.90;;;;;;4991867;28;19933;-81
2022/06/07 14:01:27;;;;;;;;;;;20.60;99.90;;;;;;5005175;28;19988;-80
2022/06/07 14:03:55;;;;;;;;;;;20.50;99.90;;;;;;5011998;28;19935;-79
2022/06/07 14:06:25;;;;;;;;;;;20.30;99.90;;;;;;5008197;28;19929;-79
2022/06/07 14:08:52;;;;;;;;;;;20.40;99.90;;;;;;4995531;28;19929;-79
2022/06/07 14:11:18;;;;;;;;;;;20.50;99.90;;;;;;5007041;28;19929;-79
2022/06/07 14:13:44;;;;;;;;;;;20.40;99.90;;;;;;4994423;28;19983;-79
2022/06/07 14:16:15;;;;;;;;;;;20.40;99.90;;;;;;5006539;28;19933;-77
2022/06/07 14:18:42;;;;;;;;;;;20.70;99.90;;;;;;4991793;28;19932;-80
2022/06/07 14:21:08;;;;;;;;;;;21.10;99.90;;;;;;5000379;28;19954;-79
2022/06/07 14:23:34;;;;;;;;;;;21.20;99.90;;;;;;5009964;28;19937;-80
2022/06/07 14:25:59;;;;;;;;;;;21.30;99.90;;;;;;4995501;28;19933;-79
2022/06/07 14:28:25;;;;;;;;;;;21.50;99.90;;;;;;4994087;28;19937;-80
2022/06/07 14:30:52;;;;;;;;;;;21.70;99.90;;;;;;4994613;28;19929;-79
2022/06/07 14:33:19;;;;;;;;;;;21.80;99.90;;;;;;5010521;28;20322;-78
2022/06/07 14:35:46;;;;;;;;;;;22.00;99.90;;;;;;4987838;28;19972;-80
2022/06/07 14:38:13;;;;;;;;;;;22.20;99.90;;;;;;4996573;28;19929;-79
2022/06/07 14:40:42;;;;;;;;;;;22.40;99.90;;;;;;4990139;28;20003;-79
2022/06/07 14:43:09;;;;;;;;;;;22.20;99.90;;;;;;5000168;28;19976;-80
2022/06/07 14:45:37;;;;;;;;;;;21.90;99.90;;;;;;5009474;28;19937;-80
2022/06/07 14:48:05;;;;;;;;;;;21.90;99.90;;;;;;4972950;28;19933;-80
2022/06/07 14:50:31;;;;;;;;;;;21.50;99.90;;;;;;4997610;28;19929;-80
2022/06/07 14:52:57;;;;;;;;;;;21.00;99.90;;;;;;4992466;28;20501;-81